sensor_id;sensor_type;location;lat;lon;timestamp;P1;durP1;ratioP1;P2;durP2;ratioP2
8462;SDS011;4268;52.506;13.462;2022-12-20T00:02:25;16.97;;;14.60;;
8462;SDS011;4268;52.506;13.462;2022-12-20T00:04:50;17.93;;;15.83;;
8462;SDS011;4268;52.506;13.462;2022-12-20T00:07:16;18.57;;;15.30;;
8462;SDS011;4268;52.506;13.462;2022-12-20T00:09:41;16.47;;;14.20;;
8462;SDS011;4268;52.506;13.462;2022-12-20T00:12:07;15.97;;;13.90;;
8462;SDS011;4268;52.506;13.462;2022-12-20T00:14:32;17.37;;;14.63;;
8462;SDS011;4268;52.506;13.462;2022-12-20T00:16:58;16.10;;;14.37;;
8462;SDS011;4268;52.506;13.462;2022-12-20T00:19:23;16.30;;;14.60;;
8462;SDS011;4268;52.506;13.462;2022-12-20T00:21:49;16.73;;;14.97;;
8462;SDS011;4268;52.506;13.462;2022-12-20T00:24:14;17.13;;;14.80;;
8462;SDS011;4268;52.506;13.462;2022-12-20T00:26:40;17.03;;;15.13;;
8462;SDS011;4268;52.506;13.462;2022-12-20T00:29:05;17.97;;;14.33;;
8462;SDS011;4268;52.506;13.462;2022-12-20T00:31:31;17.67;;;15.23;;
8462;SDS011;4268;52.506;13.462;2022-12-20T00:33:57;16.60;;;14.00;;
8462;SDS011;4268;52.506;13.462;2022-12-20T00:36:24;16.00;;;14.20;;
8462;SDS011;4268;52.506;13.462;2022-12-20T00:38:52;16.30;;;14.33;;
8462;SDS011;4268;52.506;13.462;2022-12-20T00:41:23;16.07;;;14.37;;
8462;SDS011;4268;52.506;13.462;2022-12-20T00:43:50;16.47;;;14.67;;
8462;SDS011;4268;52.506;13.462;2022-12-20T00:46:16;17.07;;;15.27;;
8462;SDS011;4268;52.506;13.462;2022-12-20T00:48:44;16.53;;;14.83;;
8462;SDS011;4268;52.506;13.462;2022-12-20T00:51:12;17.23;;;14.93;;
8462;SDS011;4268;52.506;13.462;2022-12-20T00:53:39;17.23;;;15.37;;
8462;SDS011;4268;52.506;13.462;2022-12-20T00:56:05;17.17;;;15.37;;
8462;SDS011;4268;52.506;13.462;2022-12-20T00:58:36;16.20;;;14.50;;
8462;SDS011;4268;52.506;13.462;2022-12-20T01:01:03;16.50;;;14.80;;
8462;SDS011;4268;52.506;13.462;2022-12-20T01:03:29;17.10;;;15.30;;
8462;SDS011;4268;52.506;13.462;2022-12-20T01:05:57;16.77;;;14.97;;
8462;SDS011;4268;52.506;13.462;2022-12-20T01:08:24;14.87;;;13.37;;
8462;SDS011;4268;52.506;13.462;2022-12-20T01:11:04;15.30;;;13.70;;
8462;SDS011;4268;52.506;13.462;2022-12-20T01:13:37;17.67;;;15.10;;
8462;SDS011;4268;52.506;13.462;2022-12-20T01:16:08;14.60;;;13.10;;
8462;SDS011;4268;52.506;13.462;2022-12-20T01:18:42;14.67;;;13.17;;
8462;SDS011;4268;52.506;13.462;2022-12-20T01:21:09;16.77;;;13.40;;
8462;SDS011;4268;52.506;13.462;2022-12-20T01:23:38;14.60;;;13.10;;
8462;SDS011;4268;52.506;13.462;2022-12-20T01:26:05;17.93;;;16.13;;
8462;SDS011;4268;52.506;13.462;2022-12-20T01:28:34;15.10;;;13.53;;
8462;SDS011;4268;52.506;13.462;2022-12-20T01:31:00;15.90;;;13.93;;
8462;SDS011;4268;52.506;13.462;2022-12-20T01:33:25;15.90;;;14.03;;
8462;SDS011;4268;52.506;13.462;2022-12-20T01:35:58;15.80;;;14.10;;
8462;SDS011;4268;52.506;13.462;2022-12-20T01:38:29;17.10;;;15.10;;
8462;SDS011;4268;52.506;13.462;2022-12-20T01:40:56;15.97;;;14.30;;
8462;SDS011;4268;52.506;13.462;2022-12-20T01:43:22;15.23;;;13.67;;
8462;SDS011;4268;52.506;13.462;2022-12-20T01:45:49;16.97;;;15.17;;
8462;SDS011;4268;52.506;13.462;2022-12-20T01:48:15;17.07;;;14.93;;
8462;SDS011;4268;52.506;13.462;2022-12-20T01:50:45;15.00;;;13.50;;
8462;SDS011;4268;52.506;13.462;2022-12-20T01:53:12;16.00;;;14.20;;
8462;SDS011;4268;52.506;13.462;2022-12-20T01:55:39;15.13;;;13.53;;
8462;SDS011;4268;52.506;13.462;2022-12-20T01:58:05;14.60;;;13.10;;
8462;SDS011;4268;52.506;13.462;2022-12-20T02:00:35;14.57;;;13.07;;
8462;SDS011;4268;52.506;13.462;2022-12-20T02:03:03;16.60;;;13.50;;
8462;SDS011;4268;52.506;13.462;2022-12-20T02:05:38;14.30;;;12.80;;
8462;SDS011;4268;52.506;13.462;2022-12-20T02:08:05;14.50;;;12.13;;
8462;SDS011;4268;52.506;13.462;2022-12-20T02:10:46;14.20;;;12.70;;
8462;SDS011;4268;52.506;13.462;2022-12-20T02:13:18;14.43;;;12.73;;
8462;SDS011;4268;52.506;13.462;2022-12-20T02:16:05;13.50;;;11.90;;
8462;SDS011;4268;52.506;13.462;2022-12-20T02:18:42;14.20;;;12.77;;
8462;SDS011;4268;52.506;13.462;2022-12-20T02:21:21;14.10;;;12.63;;
8462;SDS011;4268;52.506;13.462;2022-12-20T02:29:39;13.83;;;12.43;;
8462;SDS011;4268;52.506;13.462;2022-12-20T02:32:33;14.67;;;13.07;;
8462;SDS011;4268;52.506;13.462;2022-12-20T02:35:22;14.53;;;12.90;;
8462;SDS011;4268;52.506;13.462;2022-12-20T02:37:52;15.37;;;12.73;;
8462;SDS011;4268;52.506;13.462;2022-12-20T02:40:21;14.23;;;12.43;;
8462;SDS011;4268;52.506;13.462;2022-12-20T02:42:50;14.50;;;12.90;;
8462;SDS011;4268;52.506;13.462;2022-12-20T02:45:21;13.57;;;12.17;;
8462;SDS011;4268;52.506;13.462;2022-12-20T02:47:51;13.30;;;11.80;;
8462;SDS011;4268;52.506;13.462;2022-12-20T02:50:36;13.57;;;11.77;;
8462;SDS011;4268;52.506;13.462;2022-12-20T02:53:04;13.50;;;11.70;;
8462;SDS011;4268;52.506;13.462;2022-12-20T02:55:45;13.73;;;12.23;;
8462;SDS011;4268;52.506;13.462;2022-12-20T02:58:22;14.13;;;12.63;;
8462;SDS011;4268;52.506;13.462;2022-12-20T03:00:58;14.10;;;12.67;;
8462;SDS011;4268;52.506;13.462;2022-12-20T03:03:28;14.67;;;11.73;;
8462;SDS011;4268;52.506;13.462;2022-12-20T03:05:58;14.23;;;11.83;;
8462;SDS011;4268;52.506;13.462;2022-12-20T03:08:24;14.63;;;12.07;;
8462;SDS011;4268;52.506;13.462;2022-12-20T03:10:51;13.57;;;11.83;;
8462;SDS011;4268;52.506;13.462;2022-12-20T03:13:18;14.60;;;12.20;;
8462;SDS011;4268;52.506;13.462;2022-12-20T03:15:43;11.87;;;10.67;;
8462;SDS011;4268;52.506;13.462;2022-12-20T03:18:09;12.97;;;11.67;;
8462;SDS011;4268;52.506;13.462;2022-12-20T03:20:35;12.60;;;11.20;;
8462;SDS011;4268;52.506;13.462;2022-12-20T03:23:00;13.43;;;12.03;;
8462;SDS011;4268;52.506;13.462;2022-12-20T03:25:26;12.07;;;10.87;;
8462;SDS011;4268;52.506;13.462;2022-12-20T03:27:52;14.67;;;11.20;;
8462;SDS011;4268;52.506;13.462;2022-12-20T03:30:17;15.00;;;11.73;;
8462;SDS011;4268;52.506;13.462;2022-12-20T03:32:43;12.27;;;11.00;;
8462;SDS011;4268;52.506;13.462;2022-12-20T03:35:08;12.77;;;11.33;;
8462;SDS011;4268;52.506;13.462;2022-12-20T03:37:34;11.73;;;10.53;;
8462;SDS011;4268;52.506;13.462;2022-12-20T03:40:00;13.43;;;11.30;;
8462;SDS011;4268;52.506;13.462;2022-12-20T03:42:26;12.37;;;11.17;;
8462;SDS011;4268;52.506;13.462;2022-12-20T03:44:51;13.10;;;11.23;;
8462;SDS011;4268;52.506;13.462;2022-12-20T03:47:17;12.43;;;11.13;;
8462;SDS011;4268;52.506;13.462;2022-12-20T03:49:42;13.07;;;10.93;;
8462;SDS011;4268;52.506;13.462;2022-12-20T03:52:09;12.30;;;10.93;;
8462;SDS011;4268;52.506;13.462;2022-12-20T03:54:36;13.33;;;11.93;;
8462;SDS011;4268;52.506;13.462;2022-12-20T03:57:02;12.97;;;11.57;;
8462;SDS011;4268;52.506;13.462;2022-12-20T03:59:28;13.67;;;10.93;;
8462;SDS011;4268;52.506;13.462;2022-12-20T04:01:53;11.90;;;10.70;;
8462;SDS011;4268;52.506;13.462;2022-12-20T04:04:19;11.83;;;10.63;;
8462;SDS011;4268;52.506;13.462;2022-12-20T04:06:44;12.93;;;10.97;;
8462;SDS011;4268;52.506;13.462;2022-12-20T04:09:10;13.77;;;11.13;;
8462;SDS011;4268;52.506;13.462;2022-12-20T04:11:35;12.33;;;11.03;;
8462;SDS011;4268;52.506;13.462;2022-12-20T04:14:01;12.10;;;10.67;;
8462;SDS011;4268;52.506;13.462;2022-12-20T04:16:27;12.50;;;11.27;;
8462;SDS011;4268;52.506;13.462;2022-12-20T04:18:53;12.93;;;11.50;;
8462;SDS011;4268;52.506;13.462;2022-12-20T04:21:26;12.57;;;11.27;;
8462;SDS011;4268;52.506;13.462;2022-12-20T04:23:53;12.83;;;11.53;;
8462;SDS011;4268;52.506;13.462;2022-12-20T04:26:19;12.50;;;11.20;;
8462;SDS011;4268;52.506;13.462;2022-12-20T04:28:45;13.10;;;11.70;;
8462;SDS011;4268;52.506;13.462;2022-12-20T04:31:10;13.27;;;11.17;;
8462;SDS011;4268;52.506;13.462;2022-12-20T04:33:36;12.27;;;10.93;;
8462;SDS011;4268;52.506;13.462;2022-12-20T04:36:02;12.90;;;10.97;;
8462;SDS011;4268;52.506;13.462;2022-12-20T04:38:28;12.80;;;11.20;;
8462;SDS011;4268;52.506;13.462;2022-12-20T04:40:54;12.73;;;11.43;;
8462;SDS011;4268;52.506;13.462;2022-12-20T04:43:20;11.80;;;10.60;;
8462;SDS011;4268;52.506;13.462;2022-12-20T04:45:47;13.23;;;11.83;;
8462;SDS011;4268;52.506;13.462;2022-12-20T04:48:15;13.07;;;11.67;;
8462;SDS011;4268;52.506;13.462;2022-12-20T04:50:41;12.40;;;11.13;;
8462;SDS011;4268;52.506;13.462;2022-12-20T04:53:07;12.83;;;11.53;;
8462;SDS011;4268;52.506;13.462;2022-12-20T04:56:10;13.93;;;12.13;;
8462;SDS011;4268;52.506;13.462;2022-12-20T04:58:36;13.10;;;11.63;;
8462;SDS011;4268;52.506;13.462;2022-12-20T05:01:01;13.00;;;11.63;;
8462;SDS011;4268;52.506;13.462;2022-12-20T05:03:27;13.00;;;11.60;;
8462;SDS011;4268;52.506;13.462;2022-12-20T05:05:52;14.97;;;12.40;;
8462;SDS011;4268;52.506;13.462;2022-12-20T05:08:18;14.10;;;12.60;;
8462;SDS011;4268;52.506;13.462;2022-12-20T05:10:44;12.77;;;11.20;;
8462;SDS011;4268;52.506;13.462;2022-12-20T05:13:09;12.97;;;11.13;;
8462;SDS011;4268;52.506;13.462;2022-12-20T05:15:35;12.67;;;11.30;;
8462;SDS011;4268;52.506;13.462;2022-12-20T05:18:01;14.43;;;11.73;;
8462;SDS011;4268;52.506;13.462;2022-12-20T05:20:27;13.63;;;10.80;;
8462;SDS011;4268;52.506;13.462;2022-12-20T05:22:54;12.30;;;11.10;;
8462;SDS011;4268;52.506;13.462;2022-12-20T05:25:48;12.87;;;11.57;;
8462;SDS011;4268;52.506;13.462;2022-12-20T05:28:33;15.63;;;13.77;;
8462;SDS011;4268;52.506;13.462;2022-12-20T05:30:59;12.80;;;11.50;;
8462;SDS011;4268;52.506;13.462;2022-12-20T05:33:26;12.77;;;11.27;;
8462;SDS011;4268;52.506;13.462;2022-12-20T05:35:52;15.10;;;11.87;;
8462;SDS011;4268;52.506;13.462;2022-12-20T05:38:18;13.07;;;11.70;;
8462;SDS011;4268;52.506;13.462;2022-12-20T05:40:45;14.17;;;12.37;;
8462;SDS011;4268;52.506;13.462;2022-12-20T05:43:12;12.93;;;10.93;;
8462;SDS011;4268;52.506;13.462;2022-12-20T05:45:37;13.17;;;11.43;;
8462;SDS011;4268;52.506;13.462;2022-12-20T05:48:03;12.13;;;10.80;;
8462;SDS011;4268;52.506;13.462;2022-12-20T05:50:28;15.07;;;11.50;;
8462;SDS011;4268;52.506;13.462;2022-12-20T05:52:54;13.57;;;11.77;;
8462;SDS011;4268;52.506;13.462;2022-12-20T05:55:20;14.83;;;12.37;;
8462;SDS011;4268;52.506;13.462;2022-12-20T05:57:45;12.67;;;11.20;;
8462;SDS011;4268;52.506;13.462;2022-12-20T06:00:11;12.60;;;11.30;;
8462;SDS011;4268;52.506;13.462;2022-12-20T06:02:37;14.97;;;12.43;;
8462;SDS011;4268;52.506;13.462;2022-12-20T06:05:02;12.83;;;11.50;;
8462;SDS011;4268;52.506;13.462;2022-12-20T06:07:28;16.17;;;12.27;;
8462;SDS011;4268;52.506;13.462;2022-12-20T06:09:55;12.30;;;11.10;;
8462;SDS011;4268;52.506;13.462;2022-12-20T06:12:21;12.73;;;11.43;;
8462;SDS011;4268;52.506;13.462;2022-12-20T06:14:47;12.50;;;11.20;;
8462;SDS011;4268;52.506;13.462;2022-12-20T06:17:12;12.20;;;11.00;;
8462;SDS011;4268;52.506;13.462;2022-12-20T06:19:38;12.70;;;11.40;;
8462;SDS011;4268;52.506;13.462;2022-12-20T06:22:05;12.83;;;11.43;;
8462;SDS011;4268;52.506;13.462;2022-12-20T06:24:32;12.60;;;11.30;;
8462;SDS011;4268;52.506;13.462;2022-12-20T06:26:58;13.30;;;11.80;;
8462;SDS011;4268;52.506;13.462;2022-12-20T06:29:23;12.50;;;11.17;;
8462;SDS011;4268;52.506;13.462;2022-12-20T06:31:49;12.60;;;11.40;;
8462;SDS011;4268;52.506;13.462;2022-12-20T06:34:14;13.17;;;11.87;;
8462;SDS011;4268;52.506;13.462;2022-12-20T06:36:41;12.20;;;10.93;;
8462;SDS011;4268;52.506;13.462;2022-12-20T06:39:09;13.17;;;11.80;;
8462;SDS011;4268;52.506;13.462;2022-12-20T06:41:35;14.60;;;12.57;;
8462;SDS011;4268;52.506;13.462;2022-12-20T06:44:01;13.27;;;11.70;;
8462;SDS011;4268;52.506;13.462;2022-12-20T06:46:26;14.40;;;12.30;;
8462;SDS011;4268;52.506;13.462;2022-12-20T06:48:52;14.43;;;12.93;;
8462;SDS011;4268;52.506;13.462;2022-12-20T06:51:20;14.67;;;12.20;;
8462;SDS011;4268;52.506;13.462;2022-12-20T06:53:46;13.40;;;12.10;;
8462;SDS011;4268;52.506;13.462;2022-12-20T06:56:11;14.50;;;13.10;;
8462;SDS011;4268;52.506;13.462;2022-12-20T06:58:37;14.57;;;13.07;;
8462;SDS011;4268;52.506;13.462;2022-12-20T07:01:02;14.53;;;12.80;;
8462;SDS011;4268;52.506;13.462;2022-12-20T07:03:28;13.83;;;12.33;;
8462;SDS011;4268;52.506;13.462;2022-12-20T07:05:53;14.07;;;12.60;;
8462;SDS011;4268;52.506;13.462;2022-12-20T07:08:23;14.87;;;12.23;;
8462;SDS011;4268;52.506;13.462;2022-12-20T07:10:49;13.97;;;12.40;;
8462;SDS011;4268;52.506;13.462;2022-12-20T07:13:16;15.17;;;13.57;;
8462;SDS011;4268;52.506;13.462;2022-12-20T07:15:42;13.83;;;12.43;;
8462;SDS011;4268;52.506;13.462;2022-12-20T07:18:08;15.83;;;13.40;;
8462;SDS011;4268;52.506;13.462;2022-12-20T07:20:33;14.10;;;12.70;;
8462;SDS011;4268;52.506;13.462;2022-12-20T07:22:59;15.30;;;13.77;;
8462;SDS011;4268;52.506;13.462;2022-12-20T07:25:25;17.30;;;15.80;;
8462;SDS011;4268;52.506;13.462;2022-12-20T07:27:50;15.20;;;13.67;;
8462;SDS011;4268;52.506;13.462;2022-12-20T07:30:16;16.80;;;14.47;;
8462;SDS011;4268;52.506;13.462;2022-12-20T07:32:43;22.00;;;20.10;;
8462;SDS011;4268;52.506;13.462;2022-12-20T07:35:09;16.23;;;14.53;;
8462;SDS011;4268;52.506;13.462;2022-12-20T07:37:35;15.87;;;14.23;;
8462;SDS011;4268;52.506;13.462;2022-12-20T07:40:01;15.97;;;14.47;;
8462;SDS011;4268;52.506;13.462;2022-12-20T07:42:27;14.33;;;12.97;;
8462;SDS011;4268;52.506;13.462;2022-12-20T07:44:52;16.53;;;14.93;;
8462;SDS011;4268;52.506;13.462;2022-12-20T07:47:17;15.13;;;13.63;;
8462;SDS011;4268;52.506;13.462;2022-12-20T07:49:43;15.97;;;14.07;;
8462;SDS011;4268;52.506;13.462;2022-12-20T07:52:09;15.27;;;13.67;;
8462;SDS011;4268;52.506;13.462;2022-12-20T07:54:57;15.20;;;13.70;;
8462;SDS011;4268;52.506;13.462;2022-12-20T07:57:33;15.83;;;13.03;;
8462;SDS011;4268;52.506;13.462;2022-12-20T08:00:04;24.13;;;22.13;;
8462;SDS011;4268;52.506;13.462;2022-12-20T08:02:31;16.33;;;14.63;;
8462;SDS011;4268;52.506;13.462;2022-12-20T08:05:02;16.60;;;14.73;;
8462;SDS011;4268;52.506;13.462;2022-12-20T08:07:30;15.77;;;14.23;;
8462;SDS011;4268;52.506;13.462;2022-12-20T08:09:55;15.70;;;13.83;;
8462;SDS011;4268;52.506;13.462;2022-12-20T08:12:21;17.87;;;15.07;;
8462;SDS011;4268;52.506;13.462;2022-12-20T08:14:47;16.23;;;14.47;;
8462;SDS011;4268;52.506;13.462;2022-12-20T08:17:16;16.10;;;14.37;;
8462;SDS011;4268;52.506;13.462;2022-12-20T08:19:41;16.73;;;15.03;;
8462;SDS011;4268;52.506;13.462;2022-12-20T08:22:07;19.30;;;17.53;;
8462;SDS011;4268;52.506;13.462;2022-12-20T08:24:32;15.93;;;14.30;;
8462;SDS011;4268;52.506;13.462;2022-12-20T08:26:58;17.77;;;15.80;;
8462;SDS011;4268;52.506;13.462;2022-12-20T08:29:24;18.07;;;16.10;;
8462;SDS011;4268;52.506;13.462;2022-12-20T08:31:49;19.77;;;17.77;;
8462;SDS011;4268;52.506;13.462;2022-12-20T08:34:16;21.63;;;19.63;;
8462;SDS011;4268;52.506;13.462;2022-12-20T08:36:42;17.63;;;15.80;;
8462;SDS011;4268;52.506;13.462;2022-12-20T08:39:07;22.37;;;20.17;;
8462;SDS011;4268;52.506;13.462;2022-12-20T08:41:33;17.83;;;15.30;;
8462;SDS011;4268;52.506;13.462;2022-12-20T08:44:00;27.17;;;24.67;;
8462;SDS011;4268;52.506;13.462;2022-12-20T08:46:26;17.87;;;15.97;;
8462;SDS011;4268;52.506;13.462;2022-12-20T08:48:51;19.47;;;16.83;;
8462;SDS011;4268;52.506;13.462;2022-12-20T08:51:17;21.93;;;19.77;;
8462;SDS011;4268;52.506;13.462;2022-12-20T08:53:42;21.83;;;17.20;;
8462;SDS011;4268;52.506;13.462;2022-12-20T08:56:09;21.07;;;19.00;;
8462;SDS011;4268;52.506;13.462;2022-12-20T08:58:38;20.03;;;17.43;;
8462;SDS011;4268;52.506;13.462;2022-12-20T09:01:05;18.53;;;16.63;;
8462;SDS011;4268;52.506;13.462;2022-12-20T09:03:32;18.70;;;16.13;;
8462;SDS011;4268;52.506;13.462;2022-12-20T09:05:59;18.37;;;16.37;;
8462;SDS011;4268;52.506;13.462;2022-12-20T09:08:24;18.93;;;14.83;;
8462;SDS011;4268;52.506;13.462;2022-12-20T09:10:50;17.97;;;16.07;;
8462;SDS011;4268;52.506;13.462;2022-12-20T09:13:17;19.47;;;17.57;;
8462;SDS011;4268;52.506;13.462;2022-12-20T09:15:42;16.93;;;15.10;;
8462;SDS011;4268;52.506;13.462;2022-12-20T09:18:09;20.20;;;16.60;;
8462;SDS011;4268;52.506;13.462;2022-12-20T09:20:35;18.00;;;15.80;;
8462;SDS011;4268;52.506;13.462;2022-12-20T09:23:05;19.00;;;16.57;;
8462;SDS011;4268;52.506;13.462;2022-12-20T09:25:31;18.87;;;16.73;;
8462;SDS011;4268;52.506;13.462;2022-12-20T09:27:57;17.67;;;15.87;;
8462;SDS011;4268;52.506;13.462;2022-12-20T09:30:23;17.47;;;15.67;;
8462;SDS011;4268;52.506;13.462;2022-12-20T09:32:48;17.60;;;15.80;;
8462;SDS011;4268;52.506;13.462;2022-12-20T09:35:14;17.63;;;15.77;;
8462;SDS011;4268;52.506;13.462;2022-12-20T09:37:39;19.90;;;15.70;;
8462;SDS011;4268;52.506;13.462;2022-12-20T09:40:06;17.73;;;14.80;;
8462;SDS011;4268;52.506;13.462;2022-12-20T09:42:38;17.73;;;15.93;;
8462;SDS011;4268;52.506;13.462;2022-12-20T09:45:07;20.07;;;17.93;;
8462;SDS011;4268;52.506;13.462;2022-12-20T09:47:34;17.70;;;15.90;;
8462;SDS011;4268;52.506;13.462;2022-12-20T09:50:02;16.10;;;14.50;;
8462;SDS011;4268;52.506;13.462;2022-12-20T09:52:39;17.13;;;15.53;;
8462;SDS011;4268;52.506;13.462;2022-12-20T09:55:39;16.53;;;14.83;;
8462;SDS011;4268;52.506;13.462;2022-12-20T10:01:19;20.17;;;18.40;;
8462;SDS011;4268;52.506;13.462;2022-12-20T10:03:46;18.87;;;17.07;;
8462;SDS011;4268;52.506;13.462;2022-12-20T10:17:42;13.97;;;12.57;;
8462;SDS011;4268;52.506;13.462;2022-12-20T10:20:36;16.30;;;14.63;;
8462;SDS011;4268;52.506;13.462;2022-12-20T10:23:53;14.17;;;12.77;;
8462;SDS011;4268;52.506;13.462;2022-12-20T10:25:57;16.30;;;11.97;;
8462;SDS011;4268;52.506;13.462;2022-12-20T10:28:32;13.90;;;12.50;;
8462;SDS011;4268;52.506;13.462;2022-12-20T10:31:04;14.70;;;13.13;;
8462;SDS011;4268;52.506;13.462;2022-12-20T10:33:32;13.87;;;12.47;;
8462;SDS011;4268;52.506;13.462;2022-12-20T10:38:43;14.00;;;12.60;;
8462;SDS011;4268;52.506;13.462;2022-12-20T10:41:14;13.40;;;11.90;;
8462;SDS011;4268;52.506;13.462;2022-12-20T10:43:43;14.13;;;12.37;;
8462;SDS011;4268;52.506;13.462;2022-12-20T10:46:11;12.33;;;11.10;;
8462;SDS011;4268;52.506;13.462;2022-12-20T10:48:40;13.70;;;11.70;;
8462;SDS011;4268;52.506;13.462;2022-12-20T10:53:53;13.07;;;11.33;;
8462;SDS011;4268;52.506;13.462;2022-12-20T10:59:31;13.00;;;11.67;;
8462;SDS011;4268;52.506;13.462;2022-12-20T11:01:39;12.57;;;11.20;;
8462;SDS011;4268;52.506;13.462;2022-12-20T11:04:30;12.67;;;11.37;;
8462;SDS011;4268;52.506;13.462;2022-12-20T11:06:59;12.60;;;11.30;;
8462;SDS011;4268;52.506;13.462;2022-12-20T11:12:02;12.13;;;10.97;;
8462;SDS011;4268;52.506;13.462;2022-12-20T11:14:42;12.60;;;10.97;;
8462;SDS011;4268;52.506;13.462;2022-12-20T11:17:21;13.10;;;11.80;;
8462;SDS011;4268;52.506;13.462;2022-12-20T11:28:04;12.87;;;11.57;;
8462;SDS011;4268;52.506;13.462;2022-12-20T11:31:09;11.97;;;10.77;;
8462;SDS011;4268;52.506;13.462;2022-12-20T11:38:48;13.27;;;11.10;;
8462;SDS011;4268;52.506;13.462;2022-12-20T11:41:37;12.10;;;10.97;;
8462;SDS011;4268;52.506;13.462;2022-12-20T11:52:45;12.83;;;11.53;;
8462;SDS011;4268;52.506;13.462;2022-12-20T12:00:53;12.63;;;10.93;;
8462;SDS011;4268;52.506;13.462;2022-12-20T12:03:36;12.77;;;11.47;;
8462;SDS011;4268;52.506;13.462;2022-12-20T12:06:26;11.70;;;10.30;;
8462;SDS011;4268;52.506;13.462;2022-12-20T12:09:14;11.87;;;10.67;;
8462;SDS011;4268;52.506;13.462;2022-12-20T12:11:43;11.20;;;10.07;;
8462;SDS011;4268;52.506;13.462;2022-12-20T12:14:15;11.87;;;10.67;;
8462;SDS011;4268;52.506;13.462;2022-12-20T12:16:51;12.00;;;10.70;;
8462;SDS011;4268;52.506;13.462;2022-12-20T12:19:21;12.07;;;10.87;;
8462;SDS011;4268;52.506;13.462;2022-12-20T12:21:53;13.47;;;12.07;;
8462;SDS011;4268;52.506;13.462;2022-12-20T12:24:34;13.07;;;10.73;;
8462;SDS011;4268;52.506;13.462;2022-12-20T12:27:28;11.30;;;10.20;;
8462;SDS011;4268;52.506;13.462;2022-12-20T12:29:53;11.60;;;10.47;;
8462;SDS011;4268;52.506;13.462;2022-12-20T12:32:30;11.60;;;10.40;;
8462;SDS011;4268;52.506;13.462;2022-12-20T12:35:13;12.00;;;10.80;;
8462;SDS011;4268;52.506;13.462;2022-12-20T12:38:03;12.00;;;10.80;;
8462;SDS011;4268;52.506;13.462;2022-12-20T12:43:44;11.40;;;10.17;;
8462;SDS011;4268;52.506;13.462;2022-12-20T12:46:22;12.00;;;10.80;;
8462;SDS011;4268;52.506;13.462;2022-12-20T12:49:26;11.97;;;10.77;;
8462;SDS011;4268;52.506;13.462;2022-12-20T12:51:50;12.23;;;10.97;;
8462;SDS011;4268;52.506;13.462;2022-12-20T12:54:23;11.13;;;10.03;;
8462;SDS011;4268;52.506;13.462;2022-12-20T12:56:52;12.33;;;11.03;;
8462;SDS011;4268;52.506;13.462;2022-12-20T13:10:56;10.90;;;9.80;;
8462;SDS011;4268;52.506;13.462;2022-12-20T13:20:34;12.83;;;11.37;;
8462;SDS011;4268;52.506;13.462;2022-12-20T13:25:37;12.20;;;10.90;;
8462;SDS011;4268;52.506;13.462;2022-12-20T13:43:47;11.53;;;10.33;;
8462;SDS011;4268;52.506;13.462;2022-12-20T13:48:50;11.27;;;10.17;;
8462;SDS011;4268;52.506;13.462;2022-12-20T13:51:21;10.93;;;9.83;;
8462;SDS011;4268;52.506;13.462;2022-12-20T13:53:55;11.20;;;10.00;;
8462;SDS011;4268;52.506;13.462;2022-12-20T13:58:52;11.67;;;10.57;;
8462;SDS011;4268;52.506;13.462;2022-12-20T14:01:22;11.50;;;10.30;;
8462;SDS011;4268;52.506;13.462;2022-12-20T14:03:49;11.27;;;9.93;;
8462;SDS011;4268;52.506;13.462;2022-12-20T14:06:17;10.60;;;9.60;;
8462;SDS011;4268;52.506;13.462;2022-12-20T14:08:49;11.77;;;10.53;;
8462;SDS011;4268;52.506;13.462;2022-12-20T14:11:17;11.20;;;10.00;;
8462;SDS011;4268;52.506;13.462;2022-12-20T14:13:51;11.50;;;10.30;;
8462;SDS011;4268;52.506;13.462;2022-12-20T14:16:26;13.53;;;10.70;;
8462;SDS011;4268;52.506;13.462;2022-12-20T14:19:00;11.77;;;10.57;;
8462;SDS011;4268;52.506;13.462;2022-12-20T14:21:37;11.47;;;10.27;;
8462;SDS011;4268;52.506;13.462;2022-12-20T14:24:07;11.27;;;10.17;;
8462;SDS011;4268;52.506;13.462;2022-12-20T14:26:40;12.07;;;10.87;;
8462;SDS011;4268;52.506;13.462;2022-12-20T14:29:15;11.07;;;9.97;;
8462;SDS011;4268;52.506;13.462;2022-12-20T14:31:45;10.90;;;9.90;;
8462;SDS011;4268;52.506;13.462;2022-12-20T14:34:17;11.70;;;10.50;;
8462;SDS011;4268;52.506;13.462;2022-12-20T14:36:48;11.07;;;9.97;;
8462;SDS011;4268;52.506;13.462;2022-12-20T14:42:00;11.07;;;9.93;;
8462;SDS011;4268;52.506;13.462;2022-12-20T14:44:27;13.33;;;11.20;;
8462;SDS011;4268;52.506;13.462;2022-12-20T14:46:55;11.27;;;10.17;;
8462;SDS011;4268;52.506;13.462;2022-12-20T14:49:24;11.30;;;10.10;;
8462;SDS011;4268;52.506;13.462;2022-12-20T14:52:04;11.40;;;10.30;;
8462;SDS011;4268;52.506;13.462;2022-12-20T14:54:43;12.33;;;10.77;;
8462;SDS011;4268;52.506;13.462;2022-12-20T14:57:21;11.17;;;10.07;;
8462;SDS011;4268;52.506;13.462;2022-12-20T15:02:50;12.10;;;10.90;;
8462;SDS011;4268;52.506;13.462;2022-12-20T15:08:18;11.90;;;10.70;;
8462;SDS011;4268;52.506;13.462;2022-12-20T15:13:38;12.20;;;11.00;;
8462;SDS011;4268;52.506;13.462;2022-12-20T15:16:13;13.73;;;11.50;;
8462;SDS011;4268;52.506;13.462;2022-12-20T15:18:41;12.67;;;11.37;;
8462;SDS011;4268;52.506;13.462;2022-12-20T15:23:48;12.60;;;11.10;;
8462;SDS011;4268;52.506;13.462;2022-12-20T15:26:15;13.07;;;11.50;;
8462;SDS011;4268;52.506;13.462;2022-12-20T15:28:43;14.13;;;11.70;;
8462;SDS011;4268;52.506;13.462;2022-12-20T15:31:13;13.30;;;11.87;;
8462;SDS011;4268;52.506;13.462;2022-12-20T15:33:40;14.27;;;12.70;;
8462;SDS011;4268;52.506;13.462;2022-12-20T15:36:12;14.27;;;12.23;;
8462;SDS011;4268;52.506;13.462;2022-12-20T15:38:47;14.40;;;12.40;;
8462;SDS011;4268;52.506;13.462;2022-12-20T15:44:05;13.27;;;11.97;;
8462;SDS011;4268;52.506;13.462;2022-12-20T15:46:36;13.83;;;12.43;;
8462;SDS011;4268;52.506;13.462;2022-12-20T15:49:02;14.73;;;13.23;;
8462;SDS011;4268;52.506;13.462;2022-12-20T15:53:58;13.63;;;12.23;;
8462;SDS011;4268;52.506;13.462;2022-12-20T15:56:25;13.67;;;12.23;;
8462;SDS011;4268;52.506;13.462;2022-12-20T15:58:53;15.43;;;13.40;;
8462;SDS011;4268;52.506;13.462;2022-12-20T16:01:23;14.03;;;12.50;;
8462;SDS011;4268;52.506;13.462;2022-12-20T16:03:52;16.53;;;12.23;;
8462;SDS011;4268;52.506;13.462;2022-12-20T16:06:18;15.80;;;14.20;;
8462;SDS011;4268;52.506;13.462;2022-12-20T16:08:43;15.37;;;12.43;;
8462;SDS011;4268;52.506;13.462;2022-12-20T16:13:48;15.10;;;13.50;;
8462;SDS011;4268;52.506;13.462;2022-12-20T16:16:17;14.37;;;12.87;;
8462;SDS011;4268;52.506;13.462;2022-12-20T16:18:47;15.77;;;14.07;;
8462;SDS011;4268;52.506;13.462;2022-12-20T16:21:15;15.83;;;13.33;;
8462;SDS011;4268;52.506;13.462;2022-12-20T16:23:45;15.17;;;13.47;;
8462;SDS011;4268;52.506;13.462;2022-12-20T16:26:14;15.27;;;13.53;;
8462;SDS011;4268;52.506;13.462;2022-12-20T16:28:41;17.43;;;14.40;;
8462;SDS011;4268;52.506;13.462;2022-12-20T16:33:47;20.53;;;18.73;;
8462;SDS011;4268;52.506;13.462;2022-12-20T16:36:13;16.17;;;13.63;;
8462;SDS011;4268;52.506;13.462;2022-12-20T16:38:39;14.53;;;13.03;;
8462;SDS011;4268;52.506;13.462;2022-12-20T16:41:09;14.60;;;13.10;;
8462;SDS011;4268;52.506;13.462;2022-12-20T16:43:40;17.60;;;14.87;;
8462;SDS011;4268;52.506;13.462;2022-12-20T16:46:08;15.80;;;13.53;;
8462;SDS011;4268;52.506;13.462;2022-12-20T16:48:38;15.00;;;12.97;;
8462;SDS011;4268;52.506;13.462;2022-12-20T16:51:47;16.00;;;13.87;;
8462;SDS011;4268;52.506;13.462;2022-12-20T16:53:59;16.37;;;13.90;;
8462;SDS011;4268;52.506;13.462;2022-12-20T16:56:36;14.63;;;13.03;;
8462;SDS011;4268;52.506;13.462;2022-12-20T16:59:01;16.10;;;14.37;;